Data for 04/03/2006

Time Sea-Level Adjusted Pressure Absolute Pressure Temperature Relative Humidity Dew Point   
(mb) (inHg) (mb) (inHg) (C) (F) (%) (C) (F)
00:05 1022 30.18 851 25.13 1.9 35.4 77 -1.7 28.9
00:10 1022 30.18 851 25.13 1.9 35.4 77 -1.8 28.8
00:15 1022 30.18 851 25.13 1.9 35.4 77 -1.7 28.9
00:20 1022 30.18 851 25.13 1.8 35.2 77 -1.9 28.6
00:25 1022 30.18 851 25.13 1.8 35.2 77 -1.8 28.8
00:30 1022 30.18 851 25.13 1.6 34.9 77 -2 28.5
00:35 1022 30.18 851 25.13 1.4 34.5 77 -2.1 28.1
00:40 1022 30.18 851 25.13 1.5 34.7 78 -2 28.4
00:45 1022 30.18 851 25.13 1.6 34.9 77 -2 28.5
00:50 1022 30.18 851 25.13 1.6 34.9 77 -2 28.5
00:55 1022 30.18 851 25.13 1.5 34.6 77 -2.1 28.1
01:00 1022 30.18 851 25.13 1.5 34.6 77 -2.1 28.2
01:05 1022 30.18 851 25.13 1.3 34.4 78 -2.2 28.1
01:10 1022 30.18 851 25.13 1.4 34.5 77 -2.1 28.1
01:15 1022 30.18 851 25.13 1.3 34.4 78 -2.1 28.2
01:20 1022 30.18 851 25.13 1.2 34.2 78 -2.2 28
01:25 1022 30.18 851 25.13 1.2 34.1 78 -2.3 27.8
01:30 1022 30.18 851 25.13 1.1 34 78 -2.3 27.9
01:35 1022 30.18 851 25.13 1.2 34.2 78 -2.3 27.9
01:40 1022 30.18 851 25.13 1.3 34.3 77 -2.3 27.8
01:45 1022 30.18 851 25.13 1.3 34.4 77 -2.3 27.9
01:50 1022 30.18 851 25.13 1.2 34.2 77 -2.3 27.8
01:55 1022 30.18 851 25.13 1.3 34.4 76 -2.4 27.6
02:00 1021 30.15 851 25.13 1.4 34.6 75 -2.5 27.5
02:05 1021 30.15 851 25.13 1.4 34.5 76 -2.4 27.6
02:10 1021 30.15 851 25.13 1.4 34.5 76 -2.5 27.5
02:15 1021 30.15 851 25.13 1.4 34.5 74 -2.8 26.9
02:20 1022 30.18 851 25.13 1.4 34.5 74 -2.7 27.2
02:25 1022 30.18 851 25.13 1.3 34.3 75 -2.7 27.1
02:30 1022 30.18 851 25.13 1.4 34.4 73 -2.9 26.7
02:35 1021 30.15 851 25.13 1.4 34.5 74 -2.7 27.1
02:40 1021 30.15 851 25.13 1.3 34.3 73 -3 26.6
02:45 1021 30.15 851 25.13 1.3 34.3 73 -3 26.5
02:50 1021 30.15 851 25.13 1.2 34.2 72 -3.2 26.2
02:55 1021 30.15 850 25.1 1.3 34.3 73 -3.1 26.4
03:00 1021 30.15 850 25.1 1.3 34.3 71 -3.5 25.8
03:05 1021 30.15 850 25.1 1.4 34.4 71 -3.4 25.8
03:10 1021 30.15 850 25.1 1.4 34.5 69 -3.7 25.4
03:15 1021 30.15 850 25.1 1.5 34.7 69 -3.6 25.5
03:20 1021 30.15 850 25.1 1.5 34.6 68 -3.7 25.3
03:25 1021 30.15 850 25.1 1.4 34.6 69 -3.6 25.6
03:30 1021 30.15 850 25.1 1.4 34.6 68 -3.8 25.2
03:35 1021 30.15 850 25.1 1.5 34.8 68 -3.7 25.3
03:40 1021 30.15 850 25.1 1.5 34.8 68 -3.8 25.1
03:45 1021 30.15 850 25.1 1.6 34.9 67 -3.8 25.2
03:50 1021 30.15 850 25.1 1.7 35 67 -3.7 25.3
03:55 1021 30.15 850 25.1 1.8 35.2 67 -3.7 25.4
04:00 1021 30.15 850 25.1 1.7 35 68 -3.6 25.4
04:05 1020 30.12 850 25.1 1.7 35.1 66 -3.9 25.1
04:10 1020 30.12 850 25.1 1.8 35.3 64 -4.2 24.4
04:15 1020 30.12 850 25.1 1.9 35.4 65 -4 24.7
04:20 1020 30.12 850 25.1 1.7 35 67 -3.7 25.3
04:25 1020 30.12 850 25.1 1.8 35.2 64 -4.2 24.4
04:30 1020 30.12 850 25.1 2 35.5 60 -5 23
04:35 1020 30.12 850 25.1 2.3 36.2 58 -5.1 22.8
04:40 1020 30.12 850 25.1 2.4 36.4 58 -5.1 22.9
04:45 1020 30.12 850 25.1 2.4 36.4 58 -4.9 23.1
04:50 1020 30.12 849 25.07 2.4 36.3 58 -4.9 23.1
04:55 1020 30.12 850 25.1 2.3 36.1 59 -4.9 23.1
05:00 1020 30.12 849 25.07 2.2 36 59 -5 23
05:05 1020 30.12 849 25.07 2.2 36 59 -5 23
05:10 1020 30.12 849 25.07 2.2 35.9 60 -4.7 23.5
05:15 1020 30.12 849 25.07 2 35.7 61 -4.6 23.7
05:20 1020 30.12 849 25.07 1.9 35.4 62 -4.7 23.5
05:25 1020 30.12 849 25.07 1.8 35.2 62 -4.8 23.3
05:30 1020 30.12 849 25.07 1.9 35.4 60 -5.2 22.7
05:35 1020 30.12 849 25.07 2.1 35.8 59 -5.1 22.8
05:40 1020 30.12 849 25.07 2 35.6 62 -4.5 23.9
05:45 1020 30.12 849 25.07 1.7 35.1 64 -4.5 24
05:50 1020 30.12 849 25.07 1.6 34.9 64 -4.4 24.1
05:55 1020 30.12 850 25.1 1.6 34.8 62 -4.9 23.2
06:00 1020 30.12 849 25.07 1.7 35 61 -5 23.1
06:05 1020 30.12 849 25.07 1.7 35.1 61 -5.1 22.9
06:10 1020 30.12 849 25.07 1.9 35.4 60 -5 23
06:15 1020 30.12 849 25.07 1.9 35.4 61 -4.7 23.5
06:20 1020 30.12 849 25.07 1.9 35.4 61 -4.9 23.2
06:25 1020 30.12 849 25.07 1.9 35.4 61 -4.8 23.4
06:30 1020 30.12 849 25.07 1.8 35.3 64 -4.3 24.3
06:35 1020 30.12 849 25.07 1.7 35.1 63 -4.6 23.8
06:40 1020 30.12 849 25.07 1.7 35.1 63 -4.5 23.9
06:45 1020 30.12 849 25.07 1.8 35.2 62 -4.7 23.5
06:50 1020 30.12 849 25.07 1.9 35.5 61 -4.9 23.2
06:55 1020 30.12 849 25.07 2 35.5 63 -4.3 24.3
07:00 1020 30.12 849 25.07 2 35.6 60 -5.1 22.9
07:05 1020 30.12 849 25.07 2.2 35.9 60 -4.9 23.3
07:10 1020 30.12 849 25.07 2.4 36.3 59 -4.9 23.2
07:15 1020 30.12 849 25.07 2.4 36.4 59 -4.7 23.5
07:20 1020 30.12 849 25.07 2.3 36.1 62 -4.3 24.3
07:25 1020 30.12 849 25.07 2.3 36.2 60 -4.5 23.9
07:30 1020 30.12 849 25.07 2.3 36.2 60 -4.5 23.9
07:35 1020 30.12 849 25.07 2.5 36.5 59 -4.6 23.7
07:40 1020 30.12 849 25.07 2.6 36.6 59 -4.6 23.6
07:45 1020 30.12 849 25.07 2.5 36.5 61 -4.3 24.2
07:50 1020 30.12 849 25.07 2.6 36.7 61 -4.3 24.3
07:55 1020 30.12 849 25.07 2.6 36.7 60 -4.4 24
08:00 1020 30.12 849 25.07 2.7 36.9 59 -4.5 23.9
08:05 1020 30.12 849 25.07 2.9 37.2 59 -4.2 24.4
08:10 1020 30.12 849 25.07 3 37.4 60 -4 24.9
08:15 1020 30.12 849 25.07 2.9 37.3 60 -4.2 24.5
08:20 1020 30.12 849 25.07 3 37.4 59 -4.2 24.4
08:25 1020 30.12 849 25.07 3.2 37.7 57 -4.5 23.8
08:30 1020 30.12 849 25.07 3.4 38.2 57 -4.4 24.1
08:35 1020 30.12 849 25.07 3.5 38.4 57 -4.3 24.3
08:40 1020 30.12 849 25.07 3.8 38.8 56 -4.1 24.6
08:45 1020 30.12 849 25.07 4 39.2 56 -3.9 25
08:50 1020 30.12 849 25.07 4.4 39.9 53 -4.4 24.1
08:55 1020 30.12 849 25.07 4.7 40.5 53 -4 24.7
09:00 1020 30.12 849 25.07 5 41 51 -4.3 24.3
09:05 1020 30.12 849 25.07 5.2 41.3 52 -3.9 24.9
09:10 1020 30.12 849 25.07 5.1 41.2 52 -3.9 25
09:15 1020 30.12 849 25.07 5.2 41.3 51 -4.2 24.5
09:20 1020 30.12 849 25.07 5.4 41.8 50 -4.1 24.7
09:25 1020 30.12 849 25.07 5.6 42 51 -3.9 25
09:30 1020 30.12 849 25.07 5.7 42.3 50 -3.9 25
09:35 1020 30.12 849 25.07 6.2 43.2 48 -3.9 24.9
09:40 1020 30.12 849 25.07 6.5 43.7 49 -3.3 26
09:45 1020 30.12 849 25.07 6.6 43.9 50 -3.1 26.5
09:50 1020 30.12 849 25.07 6.7 44 49 -3.3 26.1
09:55 1020 30.12 849 25.07 6.9 44.4 49 -3.2 26.3
10:00 1020 30.12 849 25.07 7.1 44.7 48 -3.3 26.1
10:05 1020 30.12 849 25.07 7 44.5 48 -3.2 26.3
10:10 1020 30.12 849 25.07 6.7 44.1 48 -3.4 25.8
10:15 1020 30.12 849 25.07 6.8 44.2 49 -3.2 26.2
10:20 1020 30.12 849 25.07 7 44.6 48 -3.2 26.2
10:25 1020 30.12 849 25.07 7.1 44.8 47 -3.4 25.9
10:30 1020 30.12 849 25.07 7.4 45.4 46 -3.3 26
10:35 1020 30.12 849 25.07 7.7 45.9 46 -3.2 26.3
10:40 1020 30.12 849 25.07 8.3 47 45 -3 26.6
10:45 1020 30.12 849 25.07 8.4 47.2 45 -2.7 27.1
10:50 1020 30.12 849 25.07 8 46.4 47 -2.5 27.5
10:55 1020 30.12 849 25.07 8.2 46.7 45 -3.1 26.5
11:00 1020 30.12 849 25.07 8.1 46.5 47 -2.7 27.2
11:05 1020 30.12 849 25.07 8.3 46.9 46 -2.7 27.2
11:10 1020 30.12 849 25.07 8.9 48 45 -2.4 27.7
11:15 1020 30.12 849 25.07 8.5 47.3 47 -2.3 27.9
11:20 1020 30.12 849 25.07 8.2 46.8 48 -2.2 28.1
11:25 1020 30.12 849 25.07 8.6 47.5 46 -2.3 27.9
11:30 1020 30.12 849 25.07 8.7 47.7 46 -2.3 27.8
11:35 1020 30.12 849 25.07 9.5 49.1 43 -2.5 27.5
11:40 1020 30.12 849 25.07 10.4 50.6 39 -2.8 26.9
11:45 1020 30.12 849 25.07 10 50.1 41 -2.5 27.4
11:50 1020 30.12 849 25.07 9.8 49.6 42 -2.4 27.6
11:55 1020 30.12 849 25.07 10.4 50.8 41 -2.3 27.8
12:00 1019 30.09 849 25.07 11.3 52.4 37 -2.8 26.9
12:05 1019 30.09 849 25.07 10.7 51.3 40 -2.3 27.8
12:10 1019 30.09 849 25.07 10.8 51.4 39 -2.6 27.2
12:15 1019 30.09 849 25.07 11.2 52.1 37 -2.8 26.9
12:20 1019 30.09 848 25.04 11 51.8 37 -3.3 26.1
12:25 1019 30.09 848 25.04 11.4 52.6 39 -2.1 28.3
12:30 1019 30.09 848 25.04 11.4 52.6 37 -2.7 27.2
12:35 1019 30.09 848 25.04 11.5 52.8 38 -2.3 27.8
12:40 1019 30.09 848 25.04 11.4 52.5 39 -1.9 28.5
12:45 1019 30.09 848 25.04 11.3 52.3 41 -1.6 29.1
12:50 1019 30.09 848 25.04 11.5 52.6 39 -1.8 28.7
12:55 1019 30.09 848 25.04 11.6 52.9 38 -2.3 27.9
13:00 1019 30.09 848 25.04 11.6 52.8 37 -2.7 27.1
13:05 1019 30.09 848 25.04 12 53.7 35 -2.7 27.1
13:10 1019 30.09 848 25.04 12.2 53.9 37 -2.2 28.1
13:15 1018 30.06 848 25.04 12.4 54.2 37 -1.7 28.9
13:20 1018 30.06 848 25.04 12.3 54.1 36 -2.5 27.6
13:25 1018 30.06 848 25.04 12.6 54.7 34 -2.7 27.2
13:30 1018 30.06 848 25.04 13 55.5 34 -2.3 27.8
13:35 1018 30.06 848 25.04 13.4 56 34 -2.2 28.1
13:40 1018 30.06 847 25.01 13.5 56.3 34 -1.8 28.8
13:45 1018 30.06 847 25.01 13.3 56 35 -1.8 28.7
13:50 1018 30.06 847 25.01 13.5 56.4 35 -1.6 29.2
13:55 1018 30.06 847 25.01 14.2 57.6 34 -1.5 29.3
14:00 1018 30.06 847 25.01 15.4 59.7 32 -1.3 29.6
14:05 1018 30.06 847 25.01 15.8 60.5 31 -1.3 29.7
14:10 1018 30.06 847 25.01 15.7 60.3 32 -1 30.2
14:15 1018 30.06 847 25.01 15.7 60.3 31 -1.1 30
14:20 1018 30.06 847 25.01 15 59 33 -0.9 30.3
14:25 1018 30.06 847 25.01 14.9 58.7 32 -1.7 29
14:30 1018 30.06 847 25.01 14.5 58.1 33 -1.6 29.1
14:35 1018 30.06 847 25.01 15 59.1 32 -1.5 29.4
14:40 1018 30.06 847 25.01 14.9 58.9 33 -1.2 29.8
14:45 1018 30.06 847 25.01 15.5 59.9 31 -1.4 29.5
14:50 1018 30.06 847 25.01 16.2 61.1 31 -0.9 30.5
14:55 1018 30.06 847 25.01 16.3 61.4 30 -1.1 30.1
15:00 1017 30.03 847 25.01 15.8 60.4 32 -0.6 30.9
15:05 1017 30.03 847 25.01 15.6 60.2 32 -0.8 30.6
15:10 1017 30.03 846 24.98 16.1 60.9 31 -0.9 30.4
15:15 1017 30.03 846 24.98 15.6 60.1 33 -0.7 30.7
15:20 1017 30.03 846 24.98 15 58.9 32 -1.4 29.5
15:25 1017 30.03 846 24.98 15 58.9 34 -0.8 30.5
15:30 1017 30.03 846 24.98 15.4 59.8 32 -1.2 29.8
15:35 1017 30.03 846 24.98 16.4 61.4 32 -0.4 31.2
15:40 1017 30.03 846 24.98 15.8 60.4 31 -1.1 30.1
15:45 1017 30.03 846 24.98 16.1 61.1 31 -1 30.1
15:50 1017 30.03 846 24.98 17.6 63.7 28 -1 30.2
15:55 1017 30.03 846 24.98 17.5 63.5 30 0 32.1
16:00 1017 30.03 846 24.98 16.8 62.2 30 -0.8 30.5
16:05 1016 30 846 24.98 16.4 61.5 31 -0.5 31.1
16:10 1016 30 846 24.98 16.7 62.1 31 -0.5 31.2
16:15 1016 30 846 24.98 17.1 62.7 30 -0.4 31.2
16:20 1016 30 846 24.98 16.6 61.8 32 -0.1 31.8
16:25 1016 30 845 24.95 15.6 60.2 33 -0.6 30.9
16:30 1016 30 845 24.95 16.3 61.4 31 -0.7 30.8
16:35 1016 30 845 24.95 16.4 61.6 31 -0.6 31
16:40 1016 30 845 24.95 17 62.5 31 -0.1 31.7
16:45 1016 30 845 24.95 17.5 63.4 30 -0.2 31.6
16:50 1016 30 845 24.95 17.5 63.5 31 0.1 32.2
16:55 1016 30 845 24.95 16.5 61.7 32 -0 31.9
17:00 1016 30 845 24.95 16 60.7 33 -0.3 31.5
17:05 1016 30 845 24.95 16.7 62 30 -0.9 30.5
17:10 1016 30 845 24.95 17.7 63.9 29 -0.3 31.4
17:15 1016 30 845 24.95 18.1 64.6 29 -0.2 31.7
17:20 1016 30 845 24.95 17.8 64.1 29 -0.5 31
17:25 1016 30 845 24.95 18.4 65.1 29 -0.1 31.9
17:30 1016 30 845 24.95 18 64.3 29 -0.2 31.7
17:35 1016 30 845 24.95 17.4 63.3 31 0.1 32.2
17:40 1016 30 845 24.95 17.1 62.8 31 -0.2 31.7
17:45 1016 30 845 24.95 16.9 62.4 31 -0.3 31.5
17:50 1016 30 845 24.95 16.5 61.6 32 -0.2 31.6
17:55 1016 30 845 24.95 16.5 61.7 32 -0.3 31.4
18:00 1016 30 845 24.95 16.3 61.3 33 0 32
18:05 1016 30 845 24.95 16.2 61.1 33 0.1 32.2
18:10 1016 30 845 24.95 15.9 60.6 34 0 32
18:15 1016 30 845 24.95 15.5 59.9 35 0.3 32.6
18:20 1016 30 845 24.95 14.7 58.5 38 0.5 32.8
18:25 1016 30 845 24.95 14.5 58.1 37 -0 32
18:30 1016 30 845 24.95 14.8 58.6 35 -0.4 31.3
18:35 1016 30 845 24.95 14.7 58.5 35 -0.4 31.2
18:40 1016 30 845 24.95 14.7 58.4 36 -0.4 31.4
18:45 1016 30 845 24.95 14.9 58.8 36 -0.2 31.7
18:50 1016 30 845 24.95 14.7 58.4 37 0.4 32.7
18:55 1016 30 845 24.95 14.3 57.7 39 0.7 33.3
19:00 1016 30 845 24.95 14 57.2 40 0.8 33.4
19:05 1016 30 845 24.95 13.9 57 40 0.5 32.9
19:10 1016 30 845 24.95 13.8 56.8 40 0.5 33
19:15 1016 30 845 24.95 13.8 56.8 41 0.7 33.2
19:20 1016 30 845 24.95 13.7 56.7 41 0.7 33.3
19:25 1016 30 845 24.95 13.5 56.4 42 0.8 33.4
19:30 1016 30 845 24.95 13.3 56 42 0.7 33.3
19:35 1016 30 845 24.95 13.2 55.8 42 0.7 33.2
19:40 1016 30 845 24.95 13.3 56 42 0.7 33.3
19:45 1016 30 845 24.95 13.4 56 43 1 33.7
19:50 1016 30 845 24.95 13.2 55.7 43 1.1 33.9
19:55 1016 30 845 24.95 13.1 55.5 44 1 33.8
20:00 1016 30 845 24.95 12.4 54.4 48 1.9 35.3
20:05 1016 30 845 24.95 11.3 52.4 54 2.4 36.3
20:10 1016 30 845 24.95 10.9 51.6 55 2.3 36.1
20:15 1016 30 845 24.95 10.9 51.6 53 1.8 35.2
20:20 1016 30 845 24.95 10.8 51.4 54 1.9 35.4
20:25 1016 30 845 24.95 10.5 51 55 1.9 35.4
20:30 1016 30 845 24.95 10.3 50.6 54 1.5 34.7
20:35 1016 30 845 24.95 10.3 50.5 54 1.5 34.7
20:40 1016 30 845 24.95 10 49.9 55 1.4 34.6
20:45 1016 30 845 24.95 9.8 49.6 56 1.5 34.6
20:50 1016 30 845 24.95 9.5 49.2 57 1.4 34.5
20:55 1016 30 845 24.95 9.2 48.6 58 1.4 34.5
21:00 1016 30 845 24.95 8.9 48.1 59 1.3 34.3
21:05 1016 30 845 24.95 8.9 48 57 0.9 33.6
21:10 1016 30 845 24.95 9.1 48.4 57 1 33.9
21:15 1016 30 845 24.95 9.2 48.6 56 1 33.9
21:20 1016 30 845 24.95 9.3 48.7 56 0.9 33.6
21:25 1016 30 845 24.95 9.2 48.5 57 1 33.8
21:30 1016 30 845 24.95 9 48.2 56 0.7 33.2
21:35 1016 30 845 24.95 9 48.2 57 0.9 33.6
21:40 1016 30 845 24.95 9 48.2 55 0.4 32.8
21:45 1016 30 845 24.95 9 48.2 54 0.2 32.3
21:50 1016 30 845 24.95 9.1 48.3 54 0.2 32.4
21:55 1016 30 845 24.95 9 48.2 53 -0 31.9
22:00 1016 30 845 24.95 9.1 48.3 52 -0.2 31.7
22:05 1016 30 845 24.95 8.8 47.8 54 -0 32
22:10 1016 30 845 24.95 8.5 47.4 54 -0.3 31.5
22:15 1016 30 845 24.95 8.2 46.8 55 -0.3 31.5
22:20 1016 30 845 24.95 8.3 47 55 -0.2 31.6
22:25 1016 30 845 24.95 8.2 46.8 55 -0.2 31.6
22:30 1016 30 845 24.95 7.8 46.1 57 -0.1 31.8
22:35 1016 30 845 24.95 7.5 45.4 58 -0.2 31.6
22:40 1016 30 845 24.95 7.4 45.4 58 -0.2 31.6
22:45 1016 30 845 24.95 7.4 45.3 58 -0.3 31.5
22:50 1016 30 845 24.95 7.7 45.8 58 -0.1 31.7
22:55 1016 30 845 24.95 7.7 45.9 58 0 32.1
23:00 1015 29.97 845 24.95 7.5 45.5 57 -0.5 31.2
23:05 1015 29.97 845 24.95 7.5 45.6 57 -0.4 31.2
23:10 1015 29.97 845 24.95 7.6 45.6 57 -0.4 31.3
23:15 1015 29.97 845 24.95 7.6 45.7 56 -0.6 31
23:20 1015 29.97 845 24.95 7.8 46 56 -0.5 31.1
23:25 1015 29.97 844 24.92 7.7 45.9 56 -0.5 31.1
23:30 1015 29.97 844 24.92 7.7 45.9 55 -0.7 30.8
23:35 1015 29.97 844 24.92 7.8 46 55 -0.6 31
23:40 1015 29.97 844 24.92 7.6 45.7 56 -0.5 31
23:45 1015 29.97 844 24.92 7.6 45.6 56 -0.6 31
23:50 1015 29.97 844 24.92 7.5 45.5 56 -0.6 30.8
23:55 1015 29.97 844 24.92 7.9 46.2 54 -0.8 30.5
24:00 1015 29.97 844 24.92 8.1 46.6 53 -0.8 30.5